Burns Pinion Ridge Reserve, California Weather observations

Data are for 10 minute period ending at time listed.
 Day   Time   Solar   Ave.   Ave.  Ave.  Vector  Max.   Baro.   Total    
  of    of     Rad.   Air    Rel.  Wind   Wind   Wind  Press.  Precip.   
Year   Day            Temp.  Hum.  Speed  Dir.   Gust                    
2014   (PST)  Kw/m2    F      %     mph   deg.    mph    mb.     in.     
-------------------------------------------------------------------------
 295    6:10   0.01   46.9    38    0.3   342     1.5   875.5    0.00 
 295    6:20   0.01   46.8    37    0.0     0     0.0   875.7    0.00 
 295    6:30   0.01   47.2    36    0.0     0     0.0   875.8    0.00 
 295    6:40   0.01   48.7    34    0.0     0     0.0   875.9    0.00 
 295    6:50   0.09   51.6    31    0.0     0     0.0   876.0    0.00 
 295    7:00   0.15   59.8    24    0.0     0     0.0   876.3    0.00 
 295    7:10   0.18   65.2    19    0.0     0     0.0   876.4    0.00 
 295    7:20   0.22   68.8    17    0.0     0     0.0   876.5    0.00 
 295    7:30   0.26   72.2    16    0.2    46     1.0   876.5    0.00 
 295    7:40   0.29   71.3    18    1.4    30     3.6   876.5    0.00 
 295    7:50   0.32   70.0    20    1.7    66     3.9   876.5    0.00 
 295    8:00   0.36   69.7    21    2.6    78     5.8   876.6    0.00 
 295    8:10   0.39   69.0    22    3.3    64     6.1   876.8    0.00 
 295    8:20   0.42   68.8    22    3.1    72     5.4   877.0    0.00 
 295    8:30   0.45   68.6    22    3.9    56     6.4   877.2    0.00 
 295    8:40   0.47   69.2    21    4.0    51     6.6   877.4    0.00 
 295    8:50   0.51   69.7    20    4.1    45     7.1   877.7    0.00 
 295    9:00   0.54   69.7    20    3.6    41     7.0   877.7    0.00 
 295    9:10   0.57   70.6    20    3.3    53     6.7   877.6    0.00 
 295    9:20   0.58   70.7    20    3.4    54     6.6   877.7    0.00 
 295    9:30   0.62   71.3    19    3.3    43     6.9   877.8    0.00 
 295    9:40   0.63   71.9    18    3.0    25     6.4   877.8    0.00 
 295    9:50   0.65   72.1    18    3.4    49     8.8   878.0    0.00 
 295   10:00   0.65   73.3    17    3.3    50     8.1   878.0    0.00 
 295   10:10   0.68   72.7    18    3.0    71     5.9   878.0    0.00 
 295   10:20   0.71   73.2    17    2.5    27     7.7   878.0    0.00 
 295   10:30   0.72   73.9    16    3.4    63     7.2   878.0    0.00 
 295   10:40   0.72   74.0    16    3.8    44     7.5   877.9    0.00 
 295   10:50   0.74   73.9    16    2.5    61     7.2   877.9    0.00 
 295   11:00   0.76   75.4    15    1.7   142     5.2   877.8    0.00 
 295   11:10   0.76   75.3    15    2.9    77     9.3   877.7    0.00 
 295   11:20   0.77   75.5    15    3.7    67     8.8   877.7    0.00 
 295   11:30   0.71   75.6    15    4.2    54     8.3   877.6    0.00 
 295   11:40   0.74   75.7    14    2.9    36     6.1   877.4    0.00 
 295   11:50   0.73   76.4    14    3.8   113     7.6   877.2    0.00 
 295   12:00   0.72   76.2    14    3.0    67     8.3   877.1    0.00 
 295   12:10   0.74   75.5    14    3.8    82     7.7   877.0    0.00 
 295   12:20   0.74   76.1    14    4.3    58     8.3   877.0    0.00 
 295   12:30   0.72   77.0    14    4.4    82     8.2   877.0    0.00 
 295   12:40   0.72   76.3    14    2.8    52     7.8   876.9    0.00 
 295   12:50   0.70   77.8    14    3.3    52     8.9   876.9    0.00 
 295   13:00   0.68   77.5    14    3.6    71     8.5   876.8    0.00 
 295   13:10   0.61   76.9    14    4.8    78    10.3   876.8    0.00 
 295   13:20   0.62   77.3    14    3.8    54     6.6   876.7    0.00 
 295   13:30   0.64   77.6    14    3.3   149     9.0   876.8    0.00 
 295   13:40   0.60   78.2    14    3.1   104     7.7   876.7    0.00 
 295   13:50   0.57   77.7    14    4.4   116    10.9   876.7    0.00 
 295   14:00   0.53   77.9    14    5.5   128    11.9   876.7    0.00 
 295   14:10   0.44   77.5    14    5.1    82     9.1   876.7    0.00 
 295   14:20   0.45   77.6    14    3.8   131     6.9   876.8    0.00 
 295   14:30   0.43   79.2    14    2.6   104     6.0   876.8    0.00 
 295   14:40   0.42   77.7    15    3.0    45     7.2   876.8    0.00 
 295   14:50   0.40   78.2    15    2.5   130     6.6   876.8    0.00 
 295   15:00   0.39   78.8    16    3.7   205     8.0   876.8    0.00 
 295   15:10   0.36   77.7    16    4.2   184     8.4   876.8    0.00 
 295   15:20   0.33   77.1    16    4.3   190     9.6   876.8    0.00 
 295   15:30   0.29   77.1    15    4.4   220    11.2   876.7    0.00 
 295   15:40   0.26   76.9    15    5.4   196     9.1   876.8    0.00 
 295   15:50   0.16   76.8    15    4.0   204     7.8   876.8    0.00 
 295   16:00   0.17   76.6    15    3.5   221     7.0   876.7    0.00 
 295   16:10   0.11   75.6    15    3.9   232     8.2   876.7    0.00 
 295   16:20   0.09   74.3    16    3.8   206     7.5   876.7    0.00 
 295   16:30   0.05   73.1    17    4.1   208    10.4   876.7    0.00 
 295   16:40   0.02   71.7    17    3.8   211     6.9   876.7    0.00 
 295   16:50   0.01   71.0    18    3.7   219     6.5   876.7    0.00 
 295   17:00   0.01   70.4    18    3.2   212     5.7   876.7    0.00 
 295   17:10   0.00   69.7    18    3.3   228     7.4   876.8    0.00 
 295   17:20   0.00   69.5    19    3.4   216     7.3   876.8    0.00 
 295   17:30   0.00   68.6    19    2.2   227     4.5   876.8    0.00 
 295   17:40   0.00   67.4    20    2.7   214     6.1   876.8    0.00 
 295   17:50   0.00   67.8    20    3.9   214     8.0   876.8    0.00 
 295   18:00   0.00   68.3    20    3.5   219     5.9   876.8    0.00 
 295   18:10   0.00   67.7    20    3.7   209     5.8   877.0    0.00 
 295   18:20   0.00   67.7    21    3.8   208     6.9   877.0    0.00 
 295   18:30   0.00   67.1    22    3.2   209     5.8   877.0    0.00 
 295   18:40   0.00   66.9    22    3.0   220     6.8   877.0    0.00 
 295   18:50   0.00   66.1    22    3.3   228     5.8   877.1    0.00 
 295   19:00   0.00   66.1    22    2.1   223     4.5   877.1    0.00 
 295   19:10   0.00   64.6    23    2.1   226     3.7   877.1    0.00 
 295   19:20   0.00   62.9    24    1.8   248     3.0   877.1    0.00 
 295   19:30   0.00   60.4    26    1.1   243     2.1   877.2    0.00 
 295   19:40   0.00   58.5    28    1.8   242     2.9   877.2    0.00 
 295   19:50   0.00   58.3    29    2.2   240     3.4   877.2    0.00 
 295   20:00   0.00   59.4    28    2.7   235     3.7   877.3    0.00 
 295   20:10   0.00   60.5    28    2.8   239     4.3   877.3    0.00 
 295   20:20   0.00   60.2    28    2.4   233     3.4   877.4    0.00 
 295   20:30   0.00   60.1    30    1.8   226     3.1   877.5    0.00 
 295   20:40   0.00   60.1    30    1.8   223     3.4   877.5    0.00 
 295   20:50   0.00   59.6    32    2.2   229     4.2   877.6    0.00 
 295   21:00   0.00   59.9    32    2.5   229     4.6   877.7    0.00 
 295   21:10   0.00   59.5    33    2.3   243     3.5   877.8    0.00 
 295   21:20   0.00   59.1    34    2.4   226     4.2   877.8    0.00 
 295   21:30   0.00   58.9    36    2.3   238     4.7   877.8    0.00 
 295   21:40   0.00   58.0    37    1.6   244     3.1   877.9    0.00 
 295   21:50   0.00   56.8    40    2.0   235     3.2   877.9    0.00 
 295   22:00   0.00   57.1    41    3.0   230     4.9   877.9    0.00 
 295   22:10   0.00   59.4    39    2.8   240     3.9   878.0    0.00 
 295   22:20   0.00   58.4    38    1.9   254     3.5   878.0    0.00 
 295   22:30   0.00   56.0    42    1.0   244     3.7   877.9    0.00 
 295   22:40   0.00   55.5    44    2.7   241     4.2   877.9    0.00 
 295   22:50   0.00   56.7    44    2.6   240     4.3   877.8    0.00 
 295   23:00   0.00   59.4    42    3.3   231     6.0   877.8    0.00 
 295   23:10   0.00   62.2    40    3.7   224     6.2   877.8    0.00 
 295   23:20   0.00   64.3    37    3.9   228     6.1   877.7    0.00 
 295   23:30   0.00   64.2    37    4.2   221     6.7   877.6    0.00 
 295   23:40   0.00   64.1    37    4.0   226     6.5   877.6    0.00 
 295   23:50   0.00   63.9    35    3.4   222     6.5   877.5    0.00 
 296    0:00   0.00   64.6    33    4.3   222     7.7   877.5    0.00 
 296    0:10   0.00   64.1    32    2.6   229     6.9   877.5    0.00 
 296    0:20   0.00   64.1    31    4.4   229     6.8   877.5    0.00 
 296    0:30   0.00   64.9    30    3.9   233     7.7   877.5    0.00 
 296    0:40   0.00   63.8    30    3.6   232     7.5   877.5    0.00 
 296    0:50   0.00   64.4    29    3.6   234     7.0   877.4    0.00 
 296    1:00   0.00   63.0    31    2.9   249     5.7   877.4    0.00 
 296    1:10   0.00   59.0    35    2.1   281     4.7   877.3    0.00 
 296    1:20   0.00   55.8    39    1.4   260     4.4   877.3    0.00 
 296    1:30   0.00   54.9    41    2.2   285     3.4   877.5    0.00 
 296    1:40   0.00   54.6    41    1.3   244     2.4   877.5    0.00 
 296    1:50   0.00   53.4    42    1.2   227     2.2   877.5    0.00 
 296    2:00   0.00   53.2    41    2.0   229     3.4   877.5    0.00 
 296    2:10   0.00   53.4    40    2.2   239     3.1   877.5    0.00 
 296    2:20   0.00   53.4    40    2.4   234     3.4   877.4    0.00 
 296    2:30   0.00   53.1    40    2.2   242     3.7   877.4    0.00 
 296    2:40   0.00   51.9    42    0.8   325     1.7   877.4    0.00 
 296    2:50   0.00   51.5    42    0.2   217     1.4   877.3    0.00 
 296    3:00   0.00   51.2    42    0.8   266     2.1   877.4    0.00 
 296    3:10   0.00   50.8    41    0.4   245     1.2   877.4    0.00 
 296    3:20   0.00   50.1    40    0.9   256     1.8   877.3    0.00 
 296    3:30   0.00   50.2    38    0.2   301     1.5   877.3    0.00 
 296    3:40   0.00   50.6    36    0.2   320     1.6   877.4    0.00 
 296    3:50   0.00   50.7    34    0.2   320     1.5   877.5    0.00 
 296    4:00   0.00   50.0    34    0.0     0     0.0   877.5    0.00 
 296    4:10   0.00   49.4    34    0.0     0     0.0   877.5    0.00 
 296    4:20   0.00   49.9    32    0.0     0     0.0   877.6    0.00 
 296    4:30   0.00   50.3    32    0.3   262     1.5   877.7    0.00 
 296    4:40   0.00   49.9    32    0.3   228     1.3   877.7    0.00 
 296    4:50   0.00   50.2    32    0.9   258     2.5   877.8    0.00 
 296    5:00   0.00   50.0    32    0.9   272     2.8   877.8    0.00 
 296    5:10   0.00   50.6    32    0.5   230     2.0   877.9    0.00 
 296    5:20   0.00   50.4    32    0.8   261     1.9   877.9    0.00 
 296    5:30   0.00   50.3    33    0.0   285     0.4   878.0    0.00 
 296    5:40   0.00   49.5    34    0.6   297     2.3   878.0    0.00 
 296    5:50   0.00   49.5    36    0.1   309     0.9   878.0    0.00 
 296    6:00   0.00   49.0    38    0.1   344     1.3   878.1    0.00 

Return to Burns Pinion Ridge Reserve graphs page.


Western Regional Climate Center,wrcc@dri.edu